Etusivu
METAR-TAF:

METAR-TAF

Lentoasemat :

Montevideo, Uruguay

Leveyspiiri: 34-50S, Pituuspiiri: 056-00W, korkeus merenpinnasta: 32 m

Tämänhetkinen sää

Tämä raportti tehtiin 22 minuuttia sitten, kello 13.00 UTC
Tuuli 10 kn pohjoisesta
Lämpötila 18°C
Kosteus 45%
Ilmanpaine 1014 hPa
Näkyvyys 10 km tai enemmän
ei pilviä alle 1500 m:ssä eikä cumulonimbus-pilviä

METAR: SUMU 291300Z 36010KT CAVOK 18/06 Q1014 NOSIG

Aika: 10:22 (13:22 UTC)

Sääennuste

Tämä raportti tehtiin 2 tuntia ja 7 minuuttia sitten, kello 11.15 UTC
Ennuste voimassa 29. päivästä klo 12 UTC - 30. päivään klo 12 UTC
Tuuli 10 kn pohjoisesta/koillisesta
Näkyvyys 10 km tai enemmän
ei pilviä alle 1500 m:ssä eikä cumulonimbus-pilviä

TAF: SUMU 291115Z 2912/3012 03010KT CAVOK TX21/2918Z TN09/3010Z

Säähavainnot ja -ennusteet yli 4000 lentoasemalta (METAR- ja TAF-raportit).

Käytössä olevat sääasemat on merkitty karttaan keltaisilla ja punaisilla pisteillä.

Aseta hiiri pisteen päälle nähdäksesi sääaseman nimen.

Klikkaa sitten nähdäksesi säähavainnot ja -ennusteet.

Kartan vaihtaminen: klikkaa mustalla rastilla varustettuja vihreitä pisteitä, niin voit zoomata sisään; viivalla varustettua vihreää pistettä, niin voit zoomata ulos tai vihreitä nuolia, niin pääset viereisille kartoille.


METAR-TAF: